Time;durP1;ratioP1;P1;durP2;ratioP2;P2;SDS_P1;SDS_P2;PMS_P1;PMS_P2;Temp;Humidity;BMP_temperature;BMP_pressure;BME280_temperature;BME280_humidity;BME280_pressure;Samples;Min_cycle;Max_cycle;Signal;HPM_P1;HPM_P2
2022/03/21 00:00:42;;;;;;;37.20;26.63;;;7.10;99.90;;;;;;5126378;28;20036;-79
2022/03/21 00:03:09;;;;;;;35.00;26.17;;;7.00;99.90;;;;;;5102121;28;20078;-79
2022/03/21 00:05:35;;;;;;;34.58;25.38;;;7.00;99.90;;;;;;5119221;28;20409;-79
2022/03/21 00:08:02;;;;;;;35.13;24.95;;;7.00;99.90;;;;;;5100934;28;20043;-79
2022/03/21 00:10:32;;;;;;;35.47;24.02;;;7.00;99.90;;;;;;5101540;28;20051;-79
2022/03/21 00:12:59;;;;;;;32.05;22.98;;;7.00;99.90;;;;;;5118215;28;20040;-79
2022/03/21 00:15:25;;;;;;;32.20;22.75;;;7.00;99.90;;;;;;5085102;28;20048;-79
2022/03/21 00:17:51;;;;;;;33.72;22.13;;;7.00;99.90;;;;;;5118239;28;20044;-79
2022/03/21 00:20:16;;;;;;;28.70;21.20;;;7.00;99.90;;;;;;5101689;28;20039;-79
2022/03/21 00:22:42;;;;;;;32.13;22.23;;;7.10;99.90;;;;;;5117552;28;20054;-79
2022/03/21 00:25:08;;;;;;;30.77;22.30;;;7.00;99.90;;;;;;5117854;28;20104;-79
2022/03/21 00:27:38;;;;;;;31.83;21.88;;;7.00;99.90;;;;;;5100528;28;20509;-79
2022/03/21 00:30:05;;;;;;;31.35;21.65;;;6.90;99.90;;;;;;5101084;28;20048;-79
2022/03/21 00:32:31;;;;;;;30.40;21.85;;;7.00;99.90;;;;;;5100623;28;20043;-79
2022/03/21 00:34:57;;;;;;;28.63;20.63;;;7.00;99.90;;;;;;5100872;28;20043;-79
2022/03/21 00:37:23;;;;;;;31.70;21.75;;;7.00;99.90;;;;;;5117391;28;20031;-79
2022/03/21 00:39:51;;;;;;;29.05;20.58;;;7.10;99.90;;;;;;5101391;28;20118;-79
2022/03/21 00:42:17;;;;;;;29.95;20.92;;;7.00;99.90;;;;;;5138343;28;20039;-79
2022/03/21 00:44:43;;;;;;;32.75;22.33;;;7.00;99.90;;;;;;5120570;28;20397;-79
2022/03/21 00:47:09;;;;;;;29.38;21.98;;;7.00;99.90;;;;;;5121811;28;20125;-79
2022/03/21 00:49:34;;;;;;;30.50;22.42;;;6.90;99.90;;;;;;5138366;28;20031;-79
2022/03/21 00:52:00;;;;;;;33.22;23.13;;;7.00;99.90;;;;;;5120897;28;20047;-79
2022/03/21 00:54:26;;;;;;;32.90;23.67;;;6.80;99.90;;;;;;5119866;28;20067;-79
2022/03/21 00:56:52;;;;;;;30.65;22.27;;;6.80;99.90;;;;;;5139831;27;20042;-79
2022/03/21 00:59:17;;;;;;;32.13;23.65;;;6.70;99.90;;;;;;5140922;27;20039;-79
2022/03/21 01:01:43;;;;;;;29.70;21.92;;;6.70;99.90;;;;;;5106520;27;20068;-79
2022/03/21 01:04:09;;;;;;;31.60;22.35;;;6.70;99.90;;;;;;5140596;27;20126;-79
2022/03/21 01:06:35;;;;;;;34.75;22.15;;;6.80;99.90;;;;;;5123666;27;20117;-79
2022/03/21 01:09:01;;;;;;;30.77;22.20;;;6.90;99.90;;;;;;5106716;27;20447;-79
2022/03/21 01:11:27;;;;;;;33.92;22.92;;;6.90;99.90;;;;;;5107400;27;20034;-79
2022/03/21 01:13:53;;;;;;;31.45;21.92;;;6.90;99.90;;;;;;5141611;27;20043;-79
2022/03/21 01:16:19;;;;;;;31.00;22.33;;;6.90;99.90;;;;;;5140827;27;20047;-79
2022/03/21 01:18:45;;;;;;;29.33;21.45;;;6.80;99.90;;;;;;5124435;27;20144;-79
2022/03/21 01:21:11;;;;;;;31.92;22.52;;;6.80;99.90;;;;;;5141566;27;20031;-79
2022/03/21 01:23:37;;;;;;;33.80;23.45;;;6.80;99.90;;;;;;5107134;27;20469;-79
2022/03/21 01:26:03;;;;;;;33.05;21.88;;;6.90;99.90;;;;;;5107779;27;20043;-79
2022/03/21 01:28:29;;;;;;;31.42;22.58;;;6.70;99.90;;;;;;5124757;27;20038;-79
2022/03/21 01:30:55;;;;;;;32.15;23.08;;;6.70;99.90;;;;;;5108641;27;20039;-79
2022/03/21 01:33:20;;;;;;;32.03;21.85;;;6.70;99.90;;;;;;5142578;27;20039;-79
2022/03/21 01:35:46;;;;;;;32.35;22.85;;;6.80;99.90;;;;;;5108187;27;20058;-79
2022/03/21 01:38:12;;;;;;;30.17;23.25;;;6.70;99.90;;;;;;5107800;27;20039;-79
2022/03/21 01:40:38;;;;;;;32.75;22.65;;;6.70;99.90;;;;;;5142120;27;20084;-79
2022/03/21 01:43:12;;;;;;;31.38;22.38;;;6.70;99.90;;;;;;5107747;27;20050;-79
2022/03/21 01:45:38;;;;;;;32.58;22.98;;;6.70;99.90;;;;;;5142051;27;20035;-79
2022/03/21 01:48:04;;;;;;;31.35;22.63;;;6.70;99.90;;;;;;5125101;27;20035;-79
2022/03/21 01:50:30;;;;;;;31.70;22.75;;;6.60;99.90;;;;;;5141729;27;20043;-79
2022/03/21 01:55:45;;;;;;;31.35;23.13;;;6.50;99.90;;;;;;5127220;27;20043;-79
2022/03/21 01:58:13;;;;;;;30.85;22.60;;;6.40;99.90;;;;;;5141651;27;20130;-79
2022/03/21 02:00:43;;;;;;;30.60;22.08;;;6.50;99.90;;;;;;5124796;27;20031;-79
2022/03/21 02:03:08;;;;;;;32.58;22.95;;;6.60;99.90;;;;;;5141557;27;20050;-79
2022/03/21 02:05:37;;;;;;;32.22;22.75;;;6.70;99.90;;;;;;5123864;27;20043;-79
2022/03/21 02:08:03;;;;;;;30.05;21.67;;;6.70;99.90;;;;;;5122830;27;20042;-79
2022/03/21 02:10:29;;;;;;;28.05;20.95;;;6.70;99.90;;;;;;5142032;27;20039;-79
2022/03/21 02:12:55;;;;;;;28.58;21.15;;;6.70;99.90;;;;;;5124622;27;20068;-79
2022/03/21 02:15:21;;;;;;;29.33;20.13;;;6.60;99.90;;;;;;5106764;27;20051;-79
2022/03/21 02:17:48;;;;;;;29.50;20.52;;;6.60;99.90;;;;;;5114896;28;20044;-79
2022/03/21 02:20:18;;;;;;;27.23;19.33;;;6.70;99.90;;;;;;5103087;28;20100;-79
2022/03/21 02:23:07;;;;;;;27.67;18.92;;;6.70;99.90;;;;;;5136913;27;20082;-79
2022/03/21 02:25:43;;;;;;;28.73;19.30;;;6.70;99.90;;;;;;5102831;28;20395;-79
2022/03/21 02:28:12;;;;;;;27.20;19.02;;;6.60;99.90;;;;;;5137640;27;20054;-79
2022/03/21 02:30:44;;;;;;;27.48;19.35;;;6.60;99.90;;;;;;5102508;28;20164;-79
2022/03/21 02:33:10;;;;;;;;;;;6.60;99.90;;;;;;5103575;28;20503;-79
2022/03/21 02:35:38;;;;;;;28.40;18.25;;;6.60;99.90;;;;;;5120603;28;19938;-79
2022/03/21 02:38:06;;;;;;;27.73;17.90;;;6.60;99.90;;;;;;5102923;28;20031;-79
2022/03/21 02:40:32;;;;;;;29.15;18.77;;;6.60;99.90;;;;;;5137189;27;20035;-79
2022/03/21 02:42:58;;;;;;;26.52;18.85;;;6.60;99.90;;;;;;5086440;28;20506;-79
2022/03/21 02:45:24;;;;;;;28.08;19.48;;;6.60;99.90;;;;;;5103085;28;20040;-79
2022/03/21 02:47:50;;;;;;;27.05;18.23;;;6.60;99.90;;;;;;5104174;28;20047;-79
2022/03/21 02:50:20;;;;;;;25.08;18.15;;;7.30;99.90;;;;;;5103373;28;20035;-79
2022/03/21 02:52:49;;;;;;;26.17;18.17;;;6.60;99.90;;;;;;5102575;28;20911;-79
2022/03/21 02:55:15;;;;;;;28.67;18.20;;;6.50;99.90;;;;;;5103211;27;20043;-79
2022/03/21 02:57:40;;;;;;;29.80;19.92;;;6.50;99.90;;;;;;5120067;28;20402;-79
2022/03/21 03:00:06;;;;;;;28.92;18.85;;;6.50;99.90;;;;;;5086462;28;20071;-79
2022/03/21 03:02:32;;;;;;;29.40;19.15;;;6.50;99.90;;;;;;5103048;28;20050;-79
2022/03/21 03:04:58;;;;;;;27.55;18.90;;;6.50;99.90;;;;;;5120255;28;20440;-79
2022/03/21 03:07:23;;;;;;;28.23;19.77;;;6.40;99.90;;;;;;5110975;28;20036;-79
2022/03/21 03:09:49;;;;;;;28.77;20.13;;;6.40;99.90;;;;;;5085890;28;20047;-79
2022/03/21 03:12:15;;;;;;;31.08;20.30;;;6.40;99.90;;;;;;5102971;28;20489;-79
2022/03/21 03:14:40;;;;;;;30.17;20.73;;;6.30;99.90;;;;;;5086598;28;20043;-79
2022/03/21 03:17:06;;;;;;;28.02;19.98;;;6.30;99.90;;;;;;5067035;28;20104;-79
2022/03/21 03:19:32;;;;;;;29.38;20.90;;;6.20;99.90;;;;;;5082843;28;20120;-79
2022/03/21 03:21:58;;;;;;;29.10;20.30;;;6.20;99.90;;;;;;5066570;28;20507;-79
2022/03/21 03:24:26;;;;;;;24.38;17.63;;;6.10;99.90;;;;;;5082093;28;20066;-79
2022/03/21 03:26:52;;;;;;;27.67;20.00;;;5.90;99.90;;;;;;5082594;28;20032;-79
2022/03/21 03:29:18;;;;;;;23.95;17.33;;;5.90;99.90;;;;;;5099843;28;20078;-79
2022/03/21 03:31:44;;;;;;;35.53;24.27;;;5.80;99.90;;;;;;5082501;28;20036;-79
2022/03/21 03:34:10;;;;;;;27.00;20.02;;;5.70;99.90;;;;;;5099172;28;20040;-79
2022/03/21 03:36:37;;;;;;;31.17;21.65;;;5.60;99.90;;;;;;5082229;28;20491;-79
2022/03/21 03:39:03;;;;;;;27.10;19.73;;;5.50;99.90;;;;;;5076534;28;20482;-79
2022/03/21 03:41:29;;;;;;;23.90;18.15;;;5.40;99.90;;;;;;5102651;28;20126;-79
2022/03/21 03:43:56;;;;;;;31.52;20.52;;;5.30;99.90;;;;;;5102999;28;20120;-79
2022/03/21 03:46:22;;;;;;;29.35;20.38;;;5.40;99.90;;;;;;5102776;28;20073;-79
2022/03/21 03:48:47;;;;;;;29.65;20.85;;;5.50;99.90;;;;;;5102164;28;20418;-79
2022/03/21 03:51:14;;;;;;;29.77;20.60;;;5.30;99.90;;;;;;5119244;28;20047;-79
2022/03/21 03:53:40;;;;;;;29.83;21.90;;;5.30;99.90;;;;;;5102262;28;20039;-79
2022/03/21 03:56:06;;;;;;;27.40;20.48;;;5.30;99.90;;;;;;5119988;28;20125;-79
2022/03/21 03:58:34;;;;;;;25.23;17.70;;;5.20;99.90;;;;;;5119440;28;20040;-79
2022/03/21 04:01:00;;;;;;;28.02;19.85;;;5.10;99.90;;;;;;5103432;28;20043;-79
2022/03/21 04:06:10;;;;;;;30.02;20.23;;;5.00;99.90;;;;;;5120372;28;20050;-79
2022/03/21 04:08:35;;;;;;;26.30;18.77;;;4.90;99.90;;;;;;5119494;28;20040;-79
2022/03/21 04:11:01;;;;;;;25.13;18.15;;;4.80;99.90;;;;;;5119498;28;20505;-79
2022/03/21 04:13:27;;;;;;;36.75;23.95;;;4.90;99.90;;;;;;5119357;28;20043;-79
2022/03/21 04:15:53;;;;;;;26.92;18.05;;;4.70;99.90;;;;;;5102868;28;20055;-79
2022/03/21 04:18:20;;;;;;;26.17;17.77;;;4.80;99.90;;;;;;5131766;28;20502;-79
2022/03/21 04:20:50;;;;;;;28.10;19.63;;;4.70;99.90;;;;;;5122325;28;20031;-79
2022/03/21 04:23:17;;;;;;;25.48;16.75;;;4.70;99.90;;;;;;5121777;28;20043;-79
2022/03/21 04:25:44;;;;;;;30.67;20.65;;;4.70;99.90;;;;;;5122461;28;20054;-79
2022/03/21 04:28:11;;;;;;;29.73;20.83;;;4.70;99.90;;;;;;5139718;28;20055;-79
2022/03/21 04:30:37;;;;;;;30.45;21.65;;;4.60;99.90;;;;;;5139454;27;20061;-79
2022/03/21 04:33:04;;;;;;;29.63;20.90;;;4.60;99.90;;;;;;5109156;27;20039;-79
2022/03/21 04:35:30;;;;;;;26.83;18.50;;;4.60;99.90;;;;;;5144168;27;20478;-79
2022/03/21 04:37:57;;;;;;;26.27;17.30;;;4.50;99.90;;;;;;5125443;27;20121;-79
2022/03/21 04:40:23;;;;;;;25.17;17.60;;;4.50;99.90;;;;;;5126674;27;20046;-79
2022/03/21 04:42:49;;;;;;;23.75;16.90;;;4.50;99.90;;;;;;5143332;27;20035;-79
2022/03/21 04:45:16;;;;;;;24.23;17.27;;;4.60;99.90;;;;;;5126043;27;20039;-79
2022/03/21 04:47:43;;;;;;;22.85;16.02;;;4.50;99.90;;;;;;5109238;27;20071;-79
2022/03/21 04:50:09;;;;;;;23.70;16.88;;;5.00;99.90;;;;;;5142811;27;20035;-79
2022/03/21 04:52:35;;;;;;;25.67;18.48;;;4.50;99.90;;;;;;5125392;27;20478;-79
2022/03/21 04:55:02;;;;;;;28.38;19.25;;;4.50;99.90;;;;;;5126660;27;20085;-79
2022/03/21 04:57:28;;;;;;;24.75;16.98;;;4.50;99.90;;;;;;5126031;27;20045;-79
2022/03/21 04:59:55;;;;;;;24.85;16.90;;;4.50;99.90;;;;;;5143535;27;20092;-79
2022/03/21 05:02:21;;;;;;;27.65;19.40;;;4.40;99.90;;;;;;5125859;27;20081;-79
2022/03/21 05:04:47;;;;;;;28.60;19.23;;;4.40;99.90;;;;;;5108791;27;20062;-79
2022/03/21 05:07:16;;;;;;;26.40;18.17;;;4.40;99.90;;;;;;5092070;27;20121;-79
2022/03/21 05:09:45;;;;;;;24.58;17.45;;;4.30;99.90;;;;;;5108153;27;20043;-79
2022/03/21 05:12:12;;;;;;;23.77;15.95;;;4.30;99.90;;;;;;5126523;27;20047;-79
2022/03/21 05:14:38;;;;;;;23.73;16.48;;;4.30;99.90;;;;;;5142903;27;20084;-79
2022/03/21 05:17:05;;;;;;;24.15;16.38;;;4.30;99.90;;;;;;5142568;27;20109;-79
2022/03/21 05:19:35;;;;;;;23.33;15.50;;;4.10;99.90;;;;;;5142701;27;20035;-79
2022/03/21 05:22:02;;;;;;;21.35;15.98;;;4.60;99.90;;;;;;5125381;27;20043;-79
2022/03/21 05:32:41;;;;;;;27.25;18.42;;;4.10;99.90;;;;;;5112810;27;20058;-79
2022/03/21 05:37:51;;;;;;;26.52;18.38;;;4.00;99.90;;;;;;5125338;27;20120;-79
2022/03/21 05:40:34;;;;;;;33.03;22.42;;;4.00;99.90;;;;;;5103898;28;20474;-79
2022/03/21 05:43:00;;;;;;;;;;;3.80;99.90;;;;;;5089983;28;20035;-79
2022/03/21 05:45:28;;;;;;;28.90;20.85;;;3.70;99.90;;;;;;5123138;28;20354;-79
2022/03/21 05:50:39;;;;;;;21.25;15.30;;;3.70;99.90;;;;;;5131652;27;20509;-79
2022/03/21 05:53:06;;;;;;;24.17;16.77;;;3.90;99.90;;;;;;5124946;27;20045;-80
2022/03/21 05:55:32;;;;;;;20.92;15.20;;;4.00;99.90;;;;;;5124053;28;20491;-80
2022/03/21 05:57:58;;;;;;;20.83;14.52;;;3.80;99.90;;;;;;5106876;28;20097;-80
2022/03/21 06:00:25;;;;;;;19.80;14.35;;;4.20;99.90;;;;;;5109704;27;20035;-80
2022/03/21 06:02:51;;;;;;;19.98;14.05;;;3.80;99.90;;;;;;5144937;27;20039;-80
2022/03/21 06:05:21;;;;;;;26.88;17.95;;;3.80;99.90;;;;;;5117152;27;20047;-80
2022/03/21 06:07:48;;;;;;;21.40;14.95;;;3.90;99.90;;;;;;5149357;27;20035;-80
2022/03/21 06:10:14;;;;;;;23.08;16.77;;;3.80;99.90;;;;;;5120568;28;20126;-80
2022/03/21 06:12:40;;;;;;;25.80;17.95;;;3.80;99.90;;;;;;5111317;28;20048;-80
2022/03/21 06:15:08;;;;;;;38.92;23.65;;;4.00;99.90;;;;;;5132446;27;20062;-79
2022/03/21 06:17:41;;;;;;;31.02;21.73;;;3.70;99.90;;;;;;5135044;27;20053;-79
2022/03/21 06:20:14;;;;;;;23.45;16.15;;;4.30;99.90;;;;;;5135485;27;20027;-79
2022/03/21 06:22:40;;;;;;;23.20;15.98;;;3.60;99.90;;;;;;5138247;27;20049;-80
2022/03/21 06:25:07;;;;;;;20.73;14.77;;;3.70;99.90;;;;;;5133583;27;20041;-80
2022/03/21 06:27:34;;;;;;;25.90;17.05;;;3.70;99.90;;;;;;5119710;27;20035;-80
2022/03/21 06:30:01;;;;;;;18.02;13.38;;;4.20;99.90;;;;;;5135785;27;20537;-80
2022/03/21 06:32:27;;;;;;;25.25;11.00;;;3.90;99.90;;;;;;5118820;27;20108;-79
2022/03/21 06:34:53;;;;;;;22.90;17.10;;;3.80;99.90;;;;;;5129756;27;20552;-79
2022/03/21 06:37:21;;;;;;;18.77;15.10;;;4.20;99.90;;;;;;5115786;27;20035;-79
2022/03/21 06:39:47;;;;;;;26.73;19.50;;;4.60;99.90;;;;;;5098401;27;20043;-79
2022/03/21 06:42:14;;;;;;;21.40;15.80;;;5.00;99.90;;;;;;5122730;27;20030;-79
2022/03/21 06:44:42;;;;;;;18.92;15.05;;;5.30;99.90;;;;;;5090910;27;20041;-79
2022/03/21 06:47:09;;;;;;;19.48;15.73;;;5.90;99.90;;;;;;5107024;27;20039;-79
2022/03/21 06:49:35;;;;;;;15.57;13.00;;;6.80;99.90;;;;;;5140932;27;20039;-79
2022/03/21 06:52:08;;;;;;;19.88;15.55;;;7.80;99.90;;;;;;5106817;27;20025;-79
2022/03/21 06:54:34;;;;;;;18.27;13.00;;;7.70;99.90;;;;;;5123332;27;20035;-79
2022/03/21 06:57:00;;;;;;;18.05;12.95;;;7.80;99.90;;;;;;5124153;27;20043;-79
2022/03/21 06:59:26;;;;;;;18.15;13.85;;;8.40;99.90;;;;;;5104952;27;20043;-80
2022/03/21 07:01:53;;;;;;;16.15;12.40;;;8.90;99.90;;;;;;5152062;27;20055;-80
2022/03/21 07:04:23;;;;;;;19.42;13.23;;;9.20;99.90;;;;;;5146112;27;20019;-80
2022/03/21 07:06:49;;;;;;;20.17;14.20;;;9.60;99.90;;;;;;5156295;27;20609;-80
2022/03/21 07:09:16;;;;;;;19.85;14.40;;;9.80;99.90;;;;;;5127227;27;20046;-80
2022/03/21 07:11:42;;;;;;;19.83;15.38;;;10.10;99.90;;;;;;5174114;27;20071;-78
2022/03/21 07:14:08;;;;;;;19.95;15.35;;;10.70;99.90;;;;;;5179587;27;20064;-78
2022/03/21 07:16:35;;;;;;;19.50;15.30;;;10.60;99.90;;;;;;5152447;27;20054;-79
2022/03/21 07:19:06;;;;;;;23.40;17.42;;;10.70;99.90;;;;;;5162261;27;20039;-79
2022/03/21 07:21:35;;;;;;;24.67;16.83;;;10.50;99.90;;;;;;5162613;27;20039;-80
2022/03/21 07:24:00;;;;;;;22.25;16.10;;;10.40;99.90;;;;;;5138673;27;20043;-79
2022/03/21 07:26:26;;;;;;;20.73;16.27;;;10.40;99.90;;;;;;5139949;27;20047;-79
2022/03/21 07:28:52;;;;;;;20.20;16.42;;;10.40;99.90;;;;;;5138400;27;20046;-79
2022/03/21 07:31:19;;;;;;;25.73;18.10;;;10.40;99.90;;;;;;5102546;27;20038;-79
2022/03/21 07:33:45;;;;;;;23.85;17.25;;;10.10;99.90;;;;;;5139506;27;20070;-79
2022/03/21 07:36:11;;;;;;;22.98;17.50;;;10.10;99.90;;;;;;5132494;27;20053;-79
2022/03/21 07:38:37;;;;;;;23.50;17.48;;;10.10;99.90;;;;;;5118396;27;20088;-79
2022/03/21 07:41:07;;;;;;;24.45;17.42;;;10.10;99.90;;;;;;5137662;27;20052;-79
2022/03/21 07:43:37;;;;;;;26.27;17.77;;;10.20;99.90;;;;;;5120006;27;20039;-79
2022/03/21 07:48:49;;;;;;;22.45;16.88;;;10.10;99.90;;;;;;5133342;28;20039;-79
2022/03/21 07:51:14;;;;;;;22.58;17.05;;;10.20;99.90;;;;;;5132929;27;20015;-79
2022/03/21 07:53:41;;;;;;;23.70;18.17;;;10.30;99.90;;;;;;5126316;27;20149;-79
2022/03/21 07:56:07;;;;;;;23.23;17.35;;;10.30;99.90;;;;;;5104541;27;20108;-79
2022/03/21 07:58:33;;;;;;;26.30;17.52;;;10.30;99.90;;;;;;5121219;28;20043;-79
2022/03/21 08:00:59;;;;;;;22.58;16.17;;;10.20;99.90;;;;;;5118370;28;20039;-79
2022/03/21 08:03:26;;;;;;;22.75;15.88;;;10.20;99.90;;;;;;5104502;27;20046;-79
2022/03/21 08:05:52;;;;;;;22.08;16.00;;;10.10;99.90;;;;;;5108995;27;20023;-79
2022/03/21 08:08:19;;;;;;;21.75;16.27;;;10.10;99.90;;;;;;5124248;27;20075;-79
2022/03/21 08:10:46;;;;;;;22.85;16.33;;;10.10;99.90;;;;;;5123372;27;20043;-79
2022/03/21 08:13:16;;;;;;;23.63;15.68;;;10.20;99.90;;;;;;5097225;27;20121;-79
2022/03/21 08:15:45;;;;;;;20.35;14.57;;;10.30;99.90;;;;;;5102761;28;20062;-79
2022/03/21 08:18:13;;;;;;;19.42;13.50;;;10.30;99.90;;;;;;5136686;28;20107;-79
2022/03/21 08:20:40;;;;;;;22.02;15.40;;;10.30;99.90;;;;;;5114979;27;20050;-79
2022/03/21 08:23:08;;;;;;;22.13;15.13;;;10.40;99.90;;;;;;5150348;27;20035;-79
2022/03/21 08:25:35;;;;;;;21.35;15.43;;;10.50;99.90;;;;;;5130525;28;20047;-79
2022/03/21 08:28:01;;;;;;;21.45;15.75;;;10.50;99.90;;;;;;5130875;27;20405;-79
2022/03/21 08:30:32;;;;;;;23.27;16.25;;;10.50;99.90;;;;;;5133202;27;20043;-79
2022/03/21 08:32:59;;;;;;;23.77;16.27;;;10.60;99.90;;;;;;5128976;27;20039;-79
2022/03/21 08:35:25;;;;;;;24.25;16.67;;;10.60;99.90;;;;;;5126516;28;20036;-79
2022/03/21 08:37:50;;;;;;;24.95;17.30;;;10.60;99.90;;;;;;5153703;27;20107;-79
2022/03/21 08:40:17;;;;;;;23.00;17.38;;;10.60;99.90;;;;;;5113022;28;20067;-79
2022/03/21 08:42:43;;;;;;;22.63;16.50;;;10.90;99.90;;;;;;5112771;28;20040;-79
2022/03/21 08:45:10;;;;;;;22.83;16.52;;;11.00;99.90;;;;;;5145623;27;20107;-79
2022/03/21 08:47:37;;;;;;;24.98;17.38;;;11.10;99.90;;;;;;5108013;28;20066;-79
2022/03/21 08:50:04;;;;;;;26.77;17.27;;;11.20;99.90;;;;;;5063684;28;20086;-79
2022/03/21 08:52:30;;;;;;;23.83;16.88;;;11.40;99.90;;;;;;5078110;28;20095;-79
2022/03/21 08:54:56;;;;;;;24.40;17.60;;;11.60;99.90;;;;;;5088386;28;20127;-79
2022/03/21 08:57:22;;;;;;;22.90;17.60;;;11.90;99.90;;;;;;5054295;28;20063;-79
2022/03/21 08:59:48;;;;;;;20.13;16.10;;;12.20;99.90;;;;;;5098143;28;20037;-81
2022/03/21 09:02:15;;;;;;;23.52;16.40;;;12.40;97.10;;;;;;5094000;28;20037;-80
2022/03/21 09:04:41;;;;;;;21.08;15.82;;;12.60;97.10;;;;;;5065656;28;20032;-80
2022/03/21 09:07:08;;;;;;;21.85;15.88;;;12.60;96.20;;;;;;5064263;28;20099;-80
2022/03/21 09:09:34;;;;;;;24.50;16.40;;;12.90;95.90;;;;;;5075947;28;20040;-80
2022/03/21 09:12:00;;;;;;;20.27;15.48;;;13.10;95.90;;;;;;5093766;28;20040;-80
2022/03/21 09:14:26;;;;;;;23.02;16.17;;;12.90;93.40;;;;;;5084829;28;20037;-80
2022/03/21 09:16:53;;;;;;;20.38;15.65;;;13.10;94.10;;;;;;5060650;28;20117;-80
2022/03/21 09:19:19;;;;;;;20.23;16.25;;;13.30;93.00;;;;;;5078534;28;20042;-80
2022/03/21 09:21:46;;;;;;;23.70;16.55;;;13.30;91.20;;;;;;5066026;28;20051;-80
2022/03/21 09:24:12;;;;;;;22.17;18.10;;;13.50;92.30;;;;;;5080520;28;20045;-80
2022/03/21 09:26:38;;;;;;;23.35;18.27;;;13.60;94.50;;;;;;5084533;28;20066;-80
2022/03/21 09:29:05;;;;;;;22.00;16.75;;;13.80;95.70;;;;;;5072656;28;20457;-80
2022/03/21 09:31:40;;;;;;;22.38;16.05;;;13.90;90.60;;;;;;5076912;28;20044;-80
2022/03/21 09:34:12;;;;;;;23.70;16.52;;;13.90;86.70;;;;;;5076940;28;20055;-80
2022/03/21 09:36:38;;;;;;;21.47;16.93;;;13.80;85.40;;;;;;5101426;28;20032;-80
2022/03/21 09:39:06;;;;;;;24.00;16.85;;;13.90;87.10;;;;;;5082884;28;20286;-80
2022/03/21 09:41:32;;;;;;;21.40;15.82;;;14.10;85.00;;;;;;5082456;28;20052;-80
2022/03/21 09:44:01;;;;;;;22.25;17.15;;;14.20;86.40;;;;;;5100044;28;20108;-81
2022/03/21 09:46:27;;;;;;;23.77;17.98;;;14.50;84.10;;;;;;5105765;28;20082;-81
2022/03/21 09:48:55;;;;;;;25.25;18.02;;;14.40;79.80;;;;;;5095449;28;20069;-81
2022/03/21 09:51:26;;;;;;;24.40;17.77;;;14.40;82.60;;;;;;5110184;28;20099;-81
2022/03/21 09:53:52;;;;;;;22.70;16.65;;;14.50;84.10;;;;;;5107520;28;20099;-80
2022/03/21 09:56:19;;;;;;;25.13;17.23;;;14.50;74.10;;;;;;5104884;28;20047;-80
2022/03/21 09:58:45;;;;;;;24.42;17.77;;;14.50;78.30;;;;;;5097521;28;20081;-80
2022/03/21 10:01:15;;;;;;;23.15;17.20;;;14.50;79.30;;;;;;5098400;28;20051;-80
2022/03/21 10:03:42;;;;;;;24.85;17.73;;;14.60;77.50;;;;;;5099211;28;20051;-79
2022/03/21 10:06:37;;;;;;;25.00;17.92;;;14.70;83.40;;;;;;5074490;28;20439;-78
2022/03/21 10:09:12;;;;;;;24.95;17.70;;;14.60;79.10;;;;;;5060049;28;20036;-78
2022/03/21 10:11:50;;;;;;;26.33;18.73;;;14.70;73.30;;;;;;5105580;28;20051;-78
2022/03/21 10:14:25;;;;;;;26.10;19.00;;;14.70;74.90;;;;;;5107345;28;20063;-77
2022/03/21 10:17:09;;;;;;;25.63;18.83;;;14.80;72.00;;;;;;5093479;28;20041;-78
2022/03/21 10:19:42;;;;;;;25.55;19.20;;;14.90;69.80;;;;;;5097392;28;20044;-78
2022/03/21 10:22:10;;;;;;;25.40;19.25;;;15.10;76.40;;;;;;5103467;28;20037;-77
2022/03/21 10:24:44;;;;;;;26.65;18.83;;;15.30;78.50;;;;;;5088599;28;20044;-78
2022/03/21 10:27:30;;;;;;;25.27;19.30;;;15.40;69.80;;;;;;5083955;28;20032;-78
2022/03/21 10:30:02;;;;;;;24.88;18.90;;;15.40;70.90;;;;;;5095408;28;20048;-78
2022/03/21 10:32:39;;;;;;;24.80;19.98;;;15.40;69.50;;;;;;5092302;28;20044;-78
2022/03/21 10:35:12;;;;;;;24.13;19.95;;;15.50;74.40;;;;;;5092302;28;20040;-77
2022/03/21 10:37:43;;;;;;;28.15;20.33;;;15.40;68.30;;;;;;5098962;28;20050;-77
2022/03/21 10:40:31;;;;;;;25.13;18.83;;;15.30;74.50;;;;;;5086038;28;20460;-77
2022/03/21 10:42:56;;;;;;;26.20;19.45;;;15.30;68.10;;;;;;5086496;28;20286;-77
2022/03/21 10:45:24;;;;;;;27.65;19.90;;;15.20;68.70;;;;;;5099902;28;20028;-77
2022/03/21 10:47:51;;;;;;;26.92;20.15;;;15.10;70.90;;;;;;5069604;28;20043;-77
2022/03/21 10:50:27;;;;;;;26.90;20.00;;;15.20;69.50;;;;;;5085876;28;20032;-77
2022/03/21 10:53:26;;;;;;;26.17;20.23;;;15.40;70.50;;;;;;5087001;28;20066;-77
2022/03/21 10:55:58;;;;;;;25.20;20.27;;;15.50;70.80;;;;;;5085378;28;20041;-77
2022/03/21 10:58:40;;;;;;;26.75;20.17;;;15.70;72.40;;;;;;5069001;28;20035;-79
2022/03/21 11:01:24;;;;;;;27.70;19.80;;;15.60;65.40;;;;;;5080432;28;20390;-78
2022/03/21 11:03:52;;;;;;;25.90;18.70;;;15.80;68.50;;;;;;5070666;28;20036;-78
2022/03/21 11:06:18;;;;;;;24.88;18.67;;;15.80;66.60;;;;;;5081474;28;20044;-78
2022/03/21 11:08:47;;;;;;;30.20;19.80;;;15.80;62.20;;;;;;5067611;28;20488;-78
2022/03/21 11:11:13;;;;;;;25.50;19.02;;;15.80;65.50;;;;;;5068550;28;20032;-78
2022/03/21 11:13:39;;;;;;;24.95;18.98;;;16.00;67.60;;;;;;5088405;28;20537;-77
2022/03/21 11:16:06;;;;;;;26.92;20.58;;;16.20;65.50;;;;;;5074315;28;20052;-77
2022/03/21 11:18:32;;;;;;;26.35;18.65;;;16.30;63.70;;;;;;5087801;28;20039;-77
2022/03/21 11:20:59;;;;;;;27.42;19.33;;;16.30;59.40;;;;;;5083716;28;20507;-77
2022/03/21 11:23:25;;;;;;;27.73;20.50;;;16.20;62.50;;;;;;5065675;28;20582;-77
2022/03/21 11:25:56;;;;;;;28.73;20.10;;;16.20;61.90;;;;;;5067326;28;20395;-78
2022/03/21 11:28:28;;;;;;;27.70;20.20;;;16.10;63.50;;;;;;5075286;28;20045;-78
2022/03/21 11:31:00;;;;;;;25.63;19.48;;;16.10;62.10;;;;;;5077741;28;20048;-78
2022/03/21 11:33:37;;;;;;;26.80;19.42;;;16.20;62.00;;;;;;5076106;28;20066;-78
2022/03/21 11:36:06;;;;;;;27.27;18.27;;;16.30;61.20;;;;;;5084988;28;20032;-78
2022/03/21 11:39:02;;;;;;;26.33;20.23;;;16.30;57.20;;;;;;5070052;28;20036;-78
2022/03/21 11:41:31;;;;;;;26.98;20.08;;;16.10;59.40;;;;;;5090643;28;20040;-78
2022/03/21 11:44:06;;;;;;;27.70;20.60;;;16.10;58.60;;;;;;5063265;28;20040;-78
2022/03/21 11:46:33;;;;;;;29.08;19.58;;;16.10;58.40;;;;;;5076890;28;20090;-77
2022/03/21 11:49:22;;;;;;;27.77;21.23;;;16.20;60.30;;;;;;5075584;28;20041;-78
2022/03/21 11:51:55;;;;;;;26.65;19.50;;;16.40;62.30;;;;;;5048852;28;20060;-78
2022/03/21 11:54:36;;;;;;;27.48;19.23;;;16.20;61.70;;;;;;5046964;28;20064;-78
2022/03/21 11:57:09;;;;;;;30.70;19.30;;;16.20;57.70;;;;;;5067262;28;20101;-78
2022/03/21 11:59:35;;;;;;;28.83;20.77;;;16.10;57.40;;;;;;5081521;28;20028;-77
2022/03/21 12:02:07;;;;;;;25.88;18.63;;;15.90;59.50;;;;;;5063491;28;20090;-77
2022/03/21 12:04:34;;;;;;;25.90;19.38;;;16.20;61.10;;;;;;5065616;28;20032;-77
2022/03/21 12:07:12;;;;;;;27.58;19.50;;;16.20;62.20;;;;;;5073178;28;20044;-77
2022/03/21 12:09:46;;;;;;;27.13;19.00;;;16.30;63.00;;;;;;5072331;28;20119;-77
2022/03/21 12:12:12;;;;;;;26.05;19.95;;;16.50;59.90;;;;;;5073331;28;20518;-77
2022/03/21 12:15:00;;;;;;;29.05;20.48;;;16.50;61.00;;;;;;5058074;28;20403;-77
2022/03/21 12:17:26;;;;;;;30.10;19.75;;;16.50;61.30;;;;;;5060339;28;20056;-77
2022/03/21 12:19:54;;;;;;;27.23;18.98;;;16.60;61.30;;;;;;5063670;28;20043;-77
2022/03/21 12:25:00;;;;;;;26.10;20.15;;;16.80;59.70;;;;;;5073459;28;20040;-77
2022/03/21 12:27:53;;;;;;;26.85;20.83;;;16.80;61.90;;;;;;5075107;28;20036;-78
2022/03/21 12:30:29;;;;;;;27.08;19.98;;;16.90;61.70;;;;;;5073748;28;20056;-78
2022/03/21 12:33:22;;;;;;;26.13;19.83;;;16.80;60.00;;;;;;5074199;28;20422;-79
2022/03/21 12:35:56;;;;;;;26.88;20.23;;;16.80;59.90;;;;;;5079703;28;20047;-79
2022/03/21 12:38:33;;;;;;;25.40;20.75;;;16.90;59.00;;;;;;5073575;28;20480;-79
2022/03/21 12:41:02;;;;;;;24.90;19.80;;;16.80;61.40;;;;;;5069560;28;20042;-79
2022/03/21 12:43:40;;;;;;;25.40;20.40;;;16.80;61.80;;;;;;5059334;28;20043;-79
2022/03/21 12:46:06;;;;;;;27.50;20.73;;;16.80;58.80;;;;;;5077774;28;20032;-79
2022/03/21 12:48:34;;;;;;;26.27;20.88;;;16.90;59.60;;;;;;5057182;28;20058;-78
2022/03/21 12:51:00;;;;;;;28.90;21.05;;;16.70;59.20;;;;;;5054116;28;20392;-78
2022/03/21 12:53:47;;;;;;;27.75;19.65;;;16.80;59.80;;;;;;5076044;28;20039;-78
2022/03/21 12:56:15;;;;;;;26.20;20.42;;;16.90;59.70;;;;;;5063601;28;20051;-78
2022/03/21 12:58:45;;;;;;;27.10;21.00;;;17.00;60.10;;;;;;5098650;28;20039;-78
2022/03/21 13:01:20;;;;;;;30.48;20.08;;;17.00;60.00;;;;;;5050640;28;20090;-78
2022/03/21 13:03:47;;;;;;;27.02;19.70;;;16.90;61.60;;;;;;5078022;28;20045;-78